Time;durP1;ratioP1;P1;durP2;ratioP2;P2;SDS_P1;SDS_P2;PMS_P1;PMS_P2;Temp;Humidity;BMP_temperature;BMP_pressure;BME280_temperature;BME280_humidity;BME280_pressure;Samples;Min_cycle;Max_cycle;Signal;HPM_P1;HPM_P2
2021/10/06 00:01:39;;;;;;;;;0.25;0.25;;;;;22.36;43.92;101083.81;5077323;28;45386;-52
2021/10/06 00:04:05;;;;;;;;;1.00;1.00;;;;;22.34;43.86;101091.84;5077345;28;45637;-55
2021/10/06 00:06:31;;;;;;;;;2.00;1.00;;;;;22.32;43.69;101085.78;5076906;28;46408;-51
2021/10/06 00:08:56;;;;;;;;;0.25;0.25;;;;;22.33;43.72;101090.13;5076875;28;45227;-54
2021/10/06 00:11:22;;;;;;;;;1.50;0.75;;;;;22.33;43.86;101097.19;5076993;28;45378;-55
2021/10/06 00:13:48;;;;;;;;;0.50;0.50;;;;;22.33;43.76;101094.53;5077153;28;45450;-55
2021/10/06 00:16:15;;;;;;;;;1.75;1.00;;;;;22.33;43.92;101102.47;5076610;28;45671;-53
2021/10/06 00:18:40;;;;;;;;;1.50;0.00;;;;;22.32;43.89;101114.84;5077028;28;45728;-55
2021/10/06 00:21:06;;;;;;;;;1.00;1.00;;;;;22.32;43.74;101103.44;5077050;28;45866;-55
2021/10/06 00:23:32;;;;;;;;;0.25;0.25;;;;;22.32;43.72;101112.19;5077146;28;45575;-50
2021/10/06 00:26:02;;;;;;;;;2.00;1.00;;;;;22.32;43.61;101127.19;5076725;28;45771;-54
2021/10/06 00:28:28;;;;;;;;;1.00;1.00;;;;;22.31;43.81;101128.97;5076707;28;45259;-54
2021/10/06 00:30:54;;;;;;;;;4.00;1.00;;;;;22.31;43.78;101128.97;5076875;28;45247;-54
2021/10/06 00:33:20;;;;;;;;;1.00;1.00;;;;;22.31;43.87;101122.84;5076919;28;45478;-55
2021/10/06 00:35:45;;;;;;;;;2.25;1.00;;;;;22.31;43.87;101120.22;5076372;28;46330;-54
2021/10/06 00:38:11;;;;;;;;;0.50;0.50;;;;;22.31;44.03;101130.78;5076805;28;45318;-55
2021/10/06 00:40:36;;;;;;;;;1.75;1.25;;;;;22.31;43.97;101138.69;5076904;28;45260;-49
2021/10/06 00:43:02;;;;;;;;;0.00;0.00;;;;;22.29;43.70;101137.94;5076898;28;45573;-54
2021/10/06 00:45:27;;;;;;;;;3.00;0.00;;;;;22.31;43.77;101138.69;5076426;28;46160;-55
2021/10/06 00:47:53;;;;;;;;;0.75;0.75;;;;;22.30;43.86;101142.28;5076419;28;45440;-55
2021/10/06 00:50:18;;;;;;;;;0.25;0.25;;;;;22.30;43.65;101137.84;5080111;28;45404;-55
2021/10/06 00:52:47;;;;;;;;;1.50;0.50;;;;;22.30;43.65;101147.56;5080250;28;45464;-54
2021/10/06 00:55:14;;;;;;;;;1.25;0.25;;;;;22.29;43.63;101137.94;5080035;28;46907;-51
2021/10/06 00:57:40;;;;;;;;;0.50;0.00;;;;;22.28;43.65;101139.72;5080155;28;45303;-55
2021/10/06 01:00:06;;;;;;;;;2.00;1.00;;;;;22.28;43.69;101133.59;5079887;28;45425;-55
2021/10/06 01:02:31;;;;;;;;;0.75;0.00;;;;;22.28;43.72;101139.72;5080108;28;45260;-54
2021/10/06 01:04:57;;;;;;;;;1.00;1.00;;;;;22.27;43.60;101142.44;5079661;28;45362;-54
2021/10/06 01:07:22;;;;;;;;;1.00;1.00;;;;;22.27;43.33;101142.44;5079670;28;45426;-54
2021/10/06 01:09:48;;;;;;;;;1.00;1.00;;;;;22.27;43.79;101139.81;5080074;28;45903;-55
2021/10/06 01:12:14;;;;;;;;;1.50;0.00;;;;;22.28;43.55;101146.78;5079953;28;45474;-46
2021/10/06 01:14:40;;;;;;;;;0.25;0.25;;;;;22.27;43.77;101142.44;5080002;28;46274;-57
2021/10/06 01:17:05;;;;;;;;;2.00;0.25;;;;;22.26;43.69;101146.88;5079832;28;45592;-54
2021/10/06 01:19:31;;;;;;;;;0.00;0.00;;;;;22.26;43.67;101146.88;5079736;28;45235;-55
2021/10/06 01:21:58;;;;;;;;;3.00;0.75;;;;;22.27;43.49;101147.72;5079893;28;45583;-55
2021/10/06 01:24:25;;;;;;;;;1.50;0.00;;;;;22.26;43.69;101152.16;5079564;28;45503;-55
2021/10/06 01:26:51;;;;;;;;;0.00;0.00;;;;;22.24;43.70;101152.25;5079403;28;45621;-55
2021/10/06 01:29:17;;;;;;;;;0.00;0.00;;;;;22.26;43.54;101148.66;5079747;28;45314;-55
2021/10/06 01:31:44;;;;;;;;;0.00;0.00;;;;;22.25;43.82;101158.38;5079980;28;45601;-54
2021/10/06 01:34:10;;;;;;;;;0.00;0.00;;;;;22.25;43.68;101161.03;5079590;28;45651;-51
2021/10/06 01:36:37;;;;;;;;;0.25;0.00;;;;;22.24;43.63;101170.72;5079381;28;45357;-48
2021/10/06 01:39:07;;;;;;;;;3.00;2.00;;;;;22.23;43.59;101163.75;5079377;28;45456;-54
2021/10/06 01:41:36;;;;;;;;;1.00;1.00;;;;;22.23;43.76;101165.53;5079505;28;45428;-54
2021/10/06 01:44:03;;;;;;;;;1.00;1.00;;;;;22.22;43.64;101177.88;5079137;28;45510;-53
2021/10/06 01:46:29;;;;;;;;;0.25;0.25;;;;;22.24;43.46;101168.09;5079128;28;45248;-52
2021/10/06 01:48:54;;;;;;;;;1.00;0.00;;;;;22.22;43.53;101172.59;5079351;27;45340;-55
2021/10/06 01:51:20;;;;;;;;;0.00;0.00;;;;;22.23;43.65;101170.81;5079389;28;45492;-54
2021/10/06 01:53:45;;;;;;;;;1.00;1.00;;;;;22.22;43.11;101164.66;5078972;28;45450;-42
2021/10/06 01:56:10;;;;;;;;;1.00;1.00;;;;;22.23;43.59;101168.19;5079241;28;45422;-55
2021/10/06 01:58:36;;;;;;;;;0.00;0.00;;;;;22.22;43.50;101169.94;5079155;28;45461;-55
2021/10/06 02:01:03;;;;;;;;;1.00;1.00;;;;;22.21;43.93;101162.97;5078902;28;45585;-54
2021/10/06 02:03:28;;;;;;;;;1.75;1.00;;;;;22.21;43.43;101170.06;5078749;28;45623;-54
2021/10/06 02:05:54;;;;;;;;;0.00;0.00;;;;;22.20;43.63;101174.50;5078937;28;45330;-50
2021/10/06 02:08:20;;;;;;;;;2.75;0.00;;;;;22.20;43.51;101163.06;5079102;28;45304;-51
2021/10/06 02:10:46;;;;;;;;;0.25;0.25;;;;;22.20;43.61;101161.28;5079379;28;45440;-45
2021/10/06 02:13:12;;;;;;;;;2.00;1.00;;;;;22.21;43.54;101154.22;5079001;28;45705;-53
2021/10/06 02:15:38;;;;;;;;;0.00;0.00;;;;;22.20;43.57;101165.72;5078720;28;45323;-54
2021/10/06 02:18:03;;;;;;;;;0.00;0.00;;;;;22.20;43.68;101165.72;5078683;28;45211;-55
2021/10/06 02:20:29;;;;;;;;;0.75;0.00;;;;;22.18;43.61;101160.53;5079095;28;45497;-53
2021/10/06 02:22:55;;;;;;;;;0.00;0.00;;;;;22.19;43.60;101167.50;5078524;28;45353;-54
2021/10/06 02:25:21;;;;;;;;;0.75;0.00;;;;;22.17;43.62;101169.38;5078569;28;45413;-56
2021/10/06 02:27:47;;;;;;;;;0.00;0.00;;;;;22.19;43.72;101172.78;5077947;28;45422;-55
2021/10/06 02:30:14;;;;;;;;;0.25;0.25;;;;;22.19;43.45;101171.94;5079068;27;45389;-54
2021/10/06 02:32:39;;;;;;;;;0.50;0.50;;;;;22.17;43.52;101172.03;5078427;28;46689;-55
2021/10/06 02:35:06;;;;;;;;;0.75;0.75;;;;;22.18;43.42;101165.81;5078557;28;45276;-53
2021/10/06 02:37:32;;;;;;;;;1.00;0.00;;;;;22.18;43.56;101172.88;5078518;28;45344;-55
2021/10/06 02:39:57;;;;;;;;;0.00;0.00;;;;;22.18;43.57;101176.38;5078749;28;45326;-52
2021/10/06 02:42:22;;;;;;;;;1.00;0.00;;;;;22.17;43.50;101190.50;5078263;28;45804;-50
2021/10/06 02:44:48;;;;;;;;;1.00;1.00;;;;;22.16;43.69;101183.53;5077079;28;45271;-49
2021/10/06 02:47:13;;;;;;;;;1.50;0.00;;;;;22.17;43.66;101184.34;5094382;27;45333;-56
2021/10/06 02:49:39;;;;;;;;;2.00;0.00;;;;;22.16;43.46;101194.06;5078655;28;45267;-55
2021/10/06 02:52:04;;;;;;;;;0.75;0.75;;;;;22.15;43.61;101189.72;5078152;28;45435;-54
2021/10/06 02:54:30;;;;;;;;;1.00;1.00;;;;;22.16;43.62;101191.44;5078170;28;45346;-52
2021/10/06 02:57:01;;;;;;;;;0.75;0.00;;;;;22.16;43.56;101191.44;5078111;27;45621;-51
2021/10/06 02:59:27;;;;;;;;;0.00;0.00;;;;;22.16;43.49;101198.53;5078090;28;45410;-51
2021/10/06 03:01:52;;;;;;;;;3.00;2.00;;;;;22.15;43.47;101195.00;5077940;28;45537;-52
2021/10/06 03:04:17;;;;;;;;;1.00;0.00;;;;;22.15;43.77;101205.56;5078211;28;47380;-50
2021/10/06 03:06:43;;;;;;;;;0.25;0.25;;;;;22.16;43.89;101214.38;5078074;28;45308;-50
2021/10/06 03:09:08;;;;;;;;;0.00;0.00;;;;;22.16;43.72;101209.09;5078242;28;45240;-55
2021/10/06 03:11:33;;;;;;;;;1.25;0.00;;;;;22.14;43.75;101209.16;5077071;28;45445;-55
2021/10/06 03:13:59;;;;;;;;;0.00;0.00;;;;;22.14;43.87;101209.16;5077518;28;49331;-51
2021/10/06 03:16:24;;;;;;;;;1.00;1.00;;;;;22.14;43.79;101217.06;5078073;28;45281;-54
2021/10/06 03:18:49;;;;;;;;;0.50;0.00;;;;;22.14;43.83;101210.94;5077758;28;45391;-44
2021/10/06 03:21:14;;;;;;;;;0.00;0.00;;;;;22.13;43.69;101220.66;5078006;28;46252;-50
2021/10/06 03:23:40;;;;;;;;;1.00;0.00;;;;;22.14;43.70;101221.50;5077733;28;45170;-53
2021/10/06 03:26:05;;;;;;;;;0.25;0.25;;;;;22.13;43.59;101217.16;5077671;28;45335;-55
2021/10/06 03:28:30;;;;;;;;;1.50;1.50;;;;;22.12;43.74;101226.84;5076579;28;45331;-50
2021/10/06 03:30:56;;;;;;;;;1.00;1.00;;;;;22.12;43.50;101218.94;5077516;28;45407;-59
2021/10/06 03:33:21;;;;;;;;;0.00;0.00;;;;;22.11;43.62;101219.03;5077288;28;49472;-53
2021/10/06 03:35:46;;;;;;;;;0.00;0.00;;;;;22.11;43.25;101219.88;5077978;28;45436;-55
2021/10/06 03:38:12;;;;;;;;;1.25;0.75;;;;;22.11;43.31;101222.50;5077673;28;45586;-55
2021/10/06 03:40:37;;;;;;;;;1.00;0.00;;;;;22.11;43.81;101233.06;5077355;28;45475;-55
2021/10/06 03:43:03;;;;;;;;;0.00;0.00;;;;;22.09;43.64;101240.25;5077386;28;45425;-55
2021/10/06 03:45:28;;;;;;;;;0.00;0.00;;;;;22.09;43.78;101240.25;5077287;27;45390;-52
2021/10/06 03:47:54;;;;;;;;;2.00;1.00;;;;;22.08;43.51;101238.53;5077618;28;45376;-55
2021/10/06 03:50:19;;;;;;;;;0.00;0.00;;;;;22.08;43.51;101244.66;5077465;28;45371;-54
2021/10/06 03:52:45;;;;;;;;;2.00;0.75;;;;;22.07;43.51;101253.50;5077369;28;45396;-56
2021/10/06 03:55:10;;;;;;;;;1.00;1.00;;;;;22.08;43.53;101242.03;5075953;28;45466;-51
2021/10/06 03:57:36;;;;;;;;;0.00;0.00;;;;;22.08;43.70;101249.09;5077447;28;45460;-53
2021/10/06 04:00:04;;;;;;;;;0.00;0.00;;;;;22.07;43.55;101248.22;5076799;28;46325;-55
2021/10/06 04:02:30;;;;;;;;;4.25;0.75;;;;;22.08;43.51;101257.03;5076917;28;45516;-56
2021/10/06 04:04:56;;;;;;;;;0.00;0.00;;;;;22.07;43.50;101255.31;5077225;28;45557;-55
2021/10/06 04:07:21;;;;;;;;;1.00;0.00;;;;;22.06;43.49;101269.44;5077378;28;45550;-46
2021/10/06 04:09:46;;;;;;;;;0.25;0.25;;;;;22.06;43.89;101266.81;5077284;28;45355;-53
2021/10/06 04:12:12;;;;;;;;;0.00;0.00;;;;;22.07;43.57;101273.78;5076971;28;45403;-55
2021/10/06 04:14:37;;;;;;;;;1.75;0.25;;;;;22.06;43.65;101277.38;5077032;28;45484;-51
2021/10/06 04:17:03;;;;;;;;;0.00;0.00;;;;;22.05;43.45;101275.66;5077091;28;45525;-55
2021/10/06 04:19:28;;;;;;;;;3.50;1.00;;;;;22.04;43.59;101273.94;5075401;28;46419;-55
2021/10/06 04:21:53;;;;;;;;;0.50;0.50;;;;;22.05;43.53;101276.50;5076645;28;46694;-50
2021/10/06 04:24:19;;;;;;;;;1.50;0.00;;;;;22.04;43.67;101274.81;5076088;27;45441;-54
2021/10/06 04:26:44;;;;;;;;;0.00;0.00;;;;;22.03;43.69;101273.13;5075717;28;45577;-54
2021/10/06 04:29:10;;;;;;;;;3.00;1.00;;;;;22.02;43.57;101274.03;5075306;28;46888;-56
2021/10/06 04:31:35;;;;;;;;;0.00;0.00;;;;;22.03;43.44;101283.66;5075378;28;45449;-54
2021/10/06 04:34:00;;;;;;;;;1.00;1.00;;;;;22.01;43.49;101269.69;5076925;28;45354;-55
2021/10/06 04:36:26;;;;;;;;;0.75;0.75;;;;;22.03;43.41;101261.69;5076982;28;45548;-53
2021/10/06 04:38:51;;;;;;;;;0.50;0.50;;;;;22.02;43.34;101270.53;5076887;28;45994;-56
2021/10/06 04:41:16;;;;;;;;;2.00;0.00;;;;;22.02;43.38;101275.81;5076732;28;45429;-50
2021/10/06 04:43:42;;;;;;;;;1.00;1.00;;;;;22.01;43.46;101274.97;5076526;28;45451;-52
2021/10/06 04:46:07;;;;;;;;;0.00;0.00;;;;;22.01;43.41;101272.34;5076751;28;45498;-53
2021/10/06 04:48:32;;;;;;;;;0.00;0.00;;;;;22.01;43.28;101274.09;5075096;28;47707;-53
2021/10/06 04:50:58;;;;;;;;;0.00;0.00;;;;;22.01;43.30;101285.53;5076278;28;45310;-57
2021/10/06 04:53:23;;;;;;;;;0.00;0.00;;;;;22.00;43.25;101277.69;5076756;28;45252;-50
2021/10/06 04:55:49;;;;;;;;;0.25;0.25;;;;;21.99;43.49;101282.13;5077021;28;45231;-55
2021/10/06 04:58:14;;;;;;;;;0.00;0.00;;;;;22.00;43.49;101288.25;5076231;28;45528;-55
2021/10/06 05:00:40;;;;;;;;;0.00;0.00;;;;;21.99;43.58;101291.84;5076242;28;45280;-50
2021/10/06 05:03:10;;;;;;;;;0.00;0.00;;;;;21.99;43.32;101294.47;5076378;28;45375;-49
2021/10/06 05:05:36;;;;;;;;;1.50;0.00;;;;;22.00;43.06;101298.78;5076584;28;45239;-53
2021/10/06 05:08:02;;;;;;;;;0.00;0.00;;;;;21.99;43.32;101297.97;5076054;28;45548;-48
2021/10/06 05:10:27;;;;;;;;;0.00;0.00;;;;;21.99;43.34;101302.41;5076187;28;45239;-50
2021/10/06 05:12:53;;;;;;;;;2.00;1.00;;;;;21.98;43.30;101309.44;5076516;28;45337;-51
2021/10/06 05:15:18;;;;;;;;;0.00;0.00;;;;;21.98;43.42;101311.25;5076412;28;45519;-47
2021/10/06 05:17:43;;;;;;;;;0.25;0.25;;;;;21.98;43.54;101313.88;5075979;28;45522;-51
2021/10/06 05:20:09;;;;;;;;;0.00;0.00;;;;;21.97;43.38;101310.38;5076147;28;45330;-55
2021/10/06 05:22:34;;;;;;;;;1.00;0.50;;;;;21.98;43.33;101329.72;5076181;28;45328;-50
2021/10/06 05:24:59;;;;;;;;;2.50;1.00;;;;;21.98;43.52;101330.56;5076278;28;45252;-51
2021/10/06 05:27:25;;;;;;;;;0.75;0.75;;;;;21.97;43.37;101328.84;5076305;28;45436;-49
2021/10/06 05:29:50;;;;;;;;;1.25;1.00;;;;;21.97;43.46;101335.94;5076215;28;45455;-52
2021/10/06 05:32:16;;;;;;;;;1.00;1.00;;;;;21.97;43.34;101336.78;5075940;28;45520;-50
2021/10/06 05:34:41;;;;;;;;;0.00;0.00;;;;;21.97;43.70;101338.56;5076967;28;45568;-49
2021/10/06 05:37:06;;;;;;;;;0.00;0.00;;;;;21.97;43.40;101341.22;5079256;28;46353;-51
2021/10/06 05:39:32;;;;;;;;;0.25;0.00;;;;;21.96;43.45;101345.63;5079258;28;45307;-51
2021/10/06 05:41:58;;;;;;;;;1.00;1.00;;;;;21.97;43.51;101351.78;5079250;28;45459;-49
2021/10/06 05:44:23;;;;;;;;;1.75;1.00;;;;;21.96;43.56;101348.25;5079854;28;45290;-45
2021/10/06 05:46:49;;;;;;;;;1.00;1.00;;;;;21.96;43.52;101355.34;5077562;28;46972;-47
2021/10/06 05:49:14;;;;;;;;;0.00;0.00;;;;;21.96;43.45;101360.63;5079210;28;45321;-49
2021/10/06 05:51:40;;;;;;;;;0.50;0.50;;;;;21.96;43.52;101366.75;5079164;28;45673;-52
2021/10/06 05:54:06;;;;;;;;;1.00;1.00;;;;;21.96;43.66;101376.47;5079255;27;45512;-54
2021/10/06 05:56:31;;;;;;;;;0.00;0.00;;;;;21.95;43.42;101372.09;5094787;27;47460;-54
2021/10/06 05:58:57;;;;;;;;;1.00;0.00;;;;;21.96;43.58;101373.81;5079248;28;45330;-49
2021/10/06 06:01:25;;;;;;;;;0.25;0.25;;;;;21.95;43.46;101372.09;5079066;28;45336;-53
2021/10/06 06:03:50;;;;;;;;;0.00;0.00;;;;;21.95;43.57;101374.75;5079262;28;45619;-50
2021/10/06 06:06:16;;;;;;;;;0.00;0.00;;;;;21.94;43.76;101379.16;5078590;28;46066;-54
2021/10/06 06:08:41;;;;;;;;;1.00;1.00;;;;;21.95;43.34;101369.47;5078877;28;45425;-55
2021/10/06 06:11:06;;;;;;;;;1.00;0.00;;;;;21.94;43.72;101371.22;5078931;28;45429;-51
2021/10/06 06:13:32;;;;;;;;;1.00;1.00;;;;;21.92;43.56;101371.31;5078927;28;45421;-53
2021/10/06 06:15:57;;;;;;;;;0.00;0.00;;;;;21.93;43.32;101369.56;5079188;28;45525;-52
2021/10/06 06:18:22;;;;;;;;;1.75;0.25;;;;;21.95;43.55;101385.31;5078537;28;45417;-52
2021/10/06 06:20:48;;;;;;;;;1.50;1.00;;;;;21.92;43.60;101381.88;5078776;28;45424;-51
2021/10/06 06:23:13;;;;;;;;;0.00;0.00;;;;;21.91;43.43;101381.97;5079090;28;45377;-54
2021/10/06 06:25:39;;;;;;;;;1.50;1.50;;;;;21.91;43.43;101390.72;5078516;28;46278;-50
2021/10/06 06:28:04;;;;;;;;;3.25;0.25;;;;;21.89;43.42;101387.31;5078511;28;45302;-52
2021/10/06 06:30:30;;;;;;;;;1.00;1.00;;;;;21.90;43.20;101391.66;5078845;28;45275;-46
2021/10/06 06:32:56;;;;;;;;;1.00;1.00;;;;;21.90;43.66;101410.13;5079221;28;45243;-51
2021/10/06 06:35:21;;;;;;;;;0.00;0.00;;;;;21.90;43.47;101404.84;5078516;28;45340;-52
2021/10/06 06:37:46;;;;;;;;;1.25;1.00;;;;;21.90;43.41;101404.84;5078602;28;45342;-46
2021/10/06 06:40:12;;;;;;;;;1.50;0.00;;;;;21.88;43.51;101401.44;5078488;28;45307;-55
2021/10/06 06:42:38;;;;;;;;;0.25;0.25;;;;;21.90;43.46;101404.03;5078646;28;45584;-48
2021/10/06 06:45:05;;;;;;;;;0.50;0.50;;;;;21.88;43.35;101406.72;5078199;28;45498;-53
2021/10/06 06:47:30;;;;;;;;;0.75;0.75;;;;;21.90;43.31;101404.03;5077240;28;45595;-53
2021/10/06 06:49:55;;;;;;;;;0.00;0.00;;;;;21.90;43.58;101407.50;5078850;28;45530;-54
2021/10/06 06:52:21;;;;;;;;;0.00;0.00;;;;;21.88;43.59;101409.34;5077333;27;45437;-52
2021/10/06 06:54:49;;;;;;;;;0.00;0.00;;;;;21.88;43.67;101412.00;5078062;28;45498;-54
2021/10/06 06:57:14;;;;;;;;;0.00;0.00;;;;;21.90;43.50;101423.34;5078017;27;45338;-49
2021/10/06 06:59:39;;;;;;;;;2.00;0.00;;;;;21.90;43.50;101431.25;5078204;28;45479;-54
2021/10/06 07:02:05;;;;;;;;;1.00;0.00;;;;;21.90;43.61;101430.41;5078583;28;45418;-49
2021/10/06 07:04:30;;;;;;;;;1.00;1.00;;;;;21.91;43.62;101437.41;5078229;28;46209;-49
2021/10/06 07:06:57;;;;;;;;;0.50;0.00;;;;;21.89;43.55;101434.81;5077181;28;45351;-48
2021/10/06 07:09:26;;;;;;;;;0.50;0.00;;;;;21.90;43.67;101435.69;5076887;28;45367;-53
2021/10/06 07:11:52;;;;;;;;;2.00;0.50;;;;;21.91;43.78;101446.16;5078202;27;45425;-50
2021/10/06 07:14:18;;;;;;;;;1.00;1.00;;;;;21.91;43.53;101438.25;5077836;28;46140;-53
2021/10/06 07:16:44;;;;;;;;;1.00;1.00;;;;;21.92;43.79;101449.66;5093603;27;45685;-53
2021/10/06 07:19:09;;;;;;;;;0.50;0.00;;;;;21.91;43.72;101459.34;5077867;27;45375;-52
2021/10/06 07:21:34;;;;;;;;;0.25;0.00;;;;;21.92;43.96;101453.16;5078065;28;45478;-53
2021/10/06 07:24:00;;;;;;;;;3.00;1.00;;;;;21.91;43.87;101451.44;5077947;28;45594;-53
2021/10/06 07:26:25;;;;;;;;;1.00;1.00;;;;;21.92;44.01;101460.22;5077748;28;45232;-50
2021/10/06 07:28:51;;;;;;;;;2.00;1.00;;;;;21.93;44.27;101468.03;5077771;28;45414;-46
2021/10/06 07:31:16;;;;;;;;;0.50;0.50;;;;;21.95;44.39;101465.31;5077889;28;45328;-52
2021/10/06 07:33:42;;;;;;;;;0.75;0.75;;;;;21.95;44.39;101459.19;5077551;27;45462;-48
2021/10/06 07:36:07;;;;;;;;;0.25;0.25;;;;;21.95;44.27;101459.19;5077401;28;45370;-48
2021/10/06 07:38:33;;;;;;;;;1.00;1.00;;;;;21.95;43.90;101462.69;5077538;28;45212;-50
2021/10/06 07:40:58;;;;;;;;;1.00;1.00;;;;;21.95;44.24;101464.47;5078081;28;45390;-52
2021/10/06 07:43:23;;;;;;;;;0.50;0.50;;;;;21.95;44.27;101460.03;5077352;28;46155;-49
2021/10/06 07:45:50;;;;;;;;;1.00;0.00;;;;;21.96;44.58;101469.66;5077494;28;45235;-47
2021/10/06 07:48:16;;;;;;;;;0.25;0.25;;;;;21.97;44.36;101462.63;5077661;28;45389;-49
2021/10/06 07:50:42;;;;;;;;;0.00;0.00;;;;;21.96;44.60;101466.19;5077595;28;45541;-47
2021/10/06 07:53:07;;;;;;;;;1.00;0.75;;;;;21.98;44.63;101475.72;5077045;28;47281;-48
2021/10/06 07:55:33;;;;;;;;;1.25;1.25;;;;;21.99;44.69;101479.25;5077352;28;45830;-48
2021/10/06 07:57:58;;;;;;;;;1.50;1.00;;;;;22.02;44.68;101487.84;5077369;28;45512;-45
2021/10/06 08:00:23;;;;;;;;;6.25;0.75;;;;;22.03;44.40;101476.34;5077346;28;45523;-49
2021/10/06 08:02:49;;;;;;;;;2.00;1.00;;;;;22.05;44.55;101490.31;5077103;28;46350;-46
2021/10/06 08:05:14;;;;;;;;;1.00;0.50;;;;;22.08;44.50;101492.78;5077199;28;45374;-45
2021/10/06 08:07:40;;;;;;;;;2.00;2.00;;;;;22.08;44.66;101492.78;5077149;28;45384;-49
2021/10/06 08:10:06;;;;;;;;;1.25;1.25;;;;;22.09;44.69;101498.94;5077353;28;45397;-52
2021/10/06 08:12:32;;;;;;;;;2.00;1.00;;;;;22.09;44.82;101505.06;5077241;28;46555;-55
2021/10/06 08:14:57;;;;;;;;;2.25;2.25;;;;;22.11;44.77;101510.25;5076982;28;45318;-53
2021/10/06 08:17:22;;;;;;;;;2.00;1.00;;;;;22.12;44.61;101501.41;5077046;28;45376;-55
2021/10/06 08:19:49;;;;;;;;;2.00;0.75;;;;;22.12;44.56;101511.13;5077213;28;45500;-52
2021/10/06 08:22:16;;;;;;;;;4.00;2.50;;;;;22.12;44.60;101514.59;5076758;28;47119;-53
2021/10/06 08:24:41;;;;;;;;;1.75;1.00;;;;;22.12;44.65;101519.03;5076873;28;45491;-53
2021/10/06 08:27:06;;;;;;;;;4.25;3.00;;;;;22.12;44.81;101517.25;5075612;28;45426;-55
2021/10/06 08:29:32;;;;;;;;;5.50;1.00;;;;;22.13;44.88;101516.31;5076121;28;45302;-55
2021/10/06 08:31:57;;;;;;;;;2.00;2.00;;;;;22.14;44.81;101506.63;5076712;28;45481;-53
2021/10/06 08:34:23;;;;;;;;;1.25;1.00;;;;;22.16;44.98;101516.16;5076733;27;45449;-54
2021/10/06 08:36:48;;;;;;;;;3.00;1.75;;;;;22.18;44.90;101511.66;5076831;28;45349;-55
2021/10/06 08:39:14;;;;;;;;;2.50;1.75;;;;;22.19;44.88;101512.50;5076756;28;45393;-55
2021/10/06 08:41:39;;;;;;;;;4.75;1.75;;;;;22.18;45.17;101514.31;5076463;28;46196;-55
2021/10/06 08:44:05;;;;;;;;;1.00;1.00;;;;;22.21;45.08;101523.84;5076883;28;45430;-48
2021/10/06 08:46:32;;;;;;;;;2.25;1.00;;;;;22.23;44.90;101524.63;5076926;27;45307;-56
2021/10/06 08:49:00;;;;;;;;;1.75;1.75;;;;;22.23;45.02;101517.53;5077003;28;45579;-54
2021/10/06 08:51:26;;;;;;;;;2.75;1.75;;;;;22.26;44.93;101519.19;5076445;28;46247;-54
2021/10/06 08:53:52;;;;;;;;;2.25;2.25;;;;;22.27;44.92;101522.69;5076345;28;45280;-54
2021/10/06 08:56:20;;;;;;;;;5.00;2.00;;;;;22.28;45.03;101522.59;5076582;28;45409;-53
2021/10/06 08:58:46;;;;;;;;;2.75;1.00;;;;;22.29;45.17;101518.19;5076651;28;45406;-54
2021/10/06 09:01:27;;;;;;;;;2.25;2.25;;;;;22.30;44.89;101530.44;5074892;28;46203;-53
2021/10/06 09:04:00;;;;;;;;;2.25;1.50;;;;;22.32;45.01;101534.72;5076293;28;45657;-56
2021/10/06 09:06:32;;;;;;;;;3.00;1.25;;;;;22.33;44.91;101532.91;5092226;27;45515;-51
2021/10/06 09:08:57;;;;;;;;;3.00;2.50;;;;;22.33;44.56;101540.81;5076728;28;45540;-53
2021/10/06 09:11:32;;;;;;;;;2.00;1.25;;;;;22.29;44.55;101539.31;5095523;27;48341;-53
2021/10/06 09:13:59;;;;;;;;;5.00;1.75;;;;;22.29;44.83;101539.31;5079781;28;45648;-54
2021/10/06 09:16:25;;;;;;;;;2.50;2.50;;;;;22.29;44.83;101539.31;5079841;28;45389;-53
2021/10/06 09:18:50;;;;;;;;;2.50;1.25;;;;;22.26;45.00;101542.97;5078637;28;45337;-53
2021/10/06 09:21:16;;;;;;;;;4.50;2.00;;;;;22.26;44.85;101542.97;5079551;27;46068;-49
2021/10/06 09:23:42;;;;;;;;;2.25;1.25;;;;;22.24;44.58;101544.81;5079820;28;45358;-54
2021/10/06 09:26:12;;;;;;;;;3.75;2.50;;;;;22.24;44.66;101547.47;5079701;28;45354;-52
2021/10/06 09:28:43;;;;;;;;;3.00;2.25;;;;;22.23;45.09;101551.88;5079837;28;45367;-51
2021/10/06 09:31:12;;;;;;;;;1.00;1.00;;;;;22.24;44.75;101550.94;5079453;28;45476;-55
2021/10/06 09:33:38;;;;;;;;;3.00;1.25;;;;;22.23;44.86;101551.88;5079437;28;45374;-48
2021/10/06 09:36:12;;;;;;;;;2.50;2.00;;;;;22.24;44.70;101555.38;5079827;28;45255;-53
2021/10/06 09:38:44;;;;;;;;;3.00;1.00;;;;;22.24;44.74;101563.31;5080030;28;45524;-55
2021/10/06 09:41:27;;;;;;;;;2.00;2.00;;;;;22.23;45.00;101564.25;5079483;28;45498;-54
2021/10/06 09:44:08;;;;;;;;;1.50;1.50;;;;;22.24;44.43;101563.31;5078366;27;45835;-54
2021/10/06 09:46:49;;;;;;;;;1.50;1.25;;;;;22.21;44.97;101561.66;5079678;28;45378;-51
2021/10/06 09:49:36;;;;;;;;;2.50;2.00;;;;;22.21;44.75;101561.66;5079601;28;45307;-53
2021/10/06 09:52:14;;;;;;;;;5.75;3.25;;;;;22.21;44.72;101560.81;5078971;28;45262;-51
2021/10/06 09:54:40;;;;;;;;;2.75;2.25;;;;;22.20;44.56;101559.97;5078417;28;45673;-53
2021/10/06 09:57:06;;;;;;;;;4.25;1.25;;;;;22.19;44.46;101554.75;5079626;28;45581;-54
2021/10/06 09:59:31;;;;;;;;;1.00;1.00;;;;;22.18;44.51;101561.84;5079183;28;45357;-55
2021/10/06 10:01:59;;;;;;;;;3.00;2.00;;;;;22.19;44.53;101567.94;5079024;28;46099;-55
2021/10/06 10:04:28;;;;;;;;;2.00;1.50;;;;;22.16;44.74;101566.31;5078900;28;45624;-50
2021/10/06 10:06:55;;;;;;;;;5.25;1.75;;;;;22.17;44.60;101567.16;5078993;27;45263;-52
2021/10/06 10:09:20;;;;;;;;;2.00;1.00;;;;;22.17;44.41;101570.69;5079184;27;45377;-52
2021/10/06 10:11:47;;;;;;;;;1.75;1.25;;;;;22.16;44.40;101581.34;5078726;28;46308;-55
2021/10/06 10:14:13;;;;;;;;;3.00;3.00;;;;;22.15;44.30;101571.69;5078852;28;45745;-53
2021/10/06 10:16:39;;;;;;;;;1.25;1.25;;;;;22.14;44.49;101584.03;5079264;28;45347;-54
2021/10/06 10:19:11;;;;;;;;;2.25;2.25;;;;;22.14;44.62;101564.72;5079183;28;45272;-52
2021/10/06 10:21:41;;;;;;;;;2.25;2.25;;;;;22.14;44.15;101576.09;5078935;28;46370;-56
2021/10/06 10:24:42;;;;;;;;;4.75;2.00;;;;;22.11;44.42;101581.53;5079027;28;45185;-55
2021/10/06 10:27:10;;;;;;;;;1.00;1.00;;;;;22.11;44.29;101580.69;5079131;28;45265;-54
2021/10/06 10:29:38;;;;;;;;;3.00;2.00;;;;;22.11;44.26;101583.34;5079223;28;45513;-53
2021/10/06 10:32:10;;;;;;;;;2.25;1.50;;;;;22.10;44.28;101590.41;5078607;28;45330;-55
2021/10/06 10:34:59;;;;;;;;;5.25;3.00;;;;;22.10;44.39;101600.97;5078628;28;45821;-51
2021/10/06 10:40:30;;;;;;;;;2.75;2.00;;;;;22.10;44.29;101603.63;5078790;27;45403;-55
2021/10/06 10:43:06;;;;;;;;;1.00;1.00;;;;;22.11;44.05;101596.53;5078291;27;46424;-55
2021/10/06 10:45:48;;;;;;;;;3.00;2.00;;;;;22.11;43.98;101601.81;5078306;28;45439;-55
2021/10/06 10:48:17;;;;;;;;;4.00;2.75;;;;;22.11;44.05;101597.38;5078508;28;45219;-54
2021/10/06 10:50:42;;;;;;;;;2.00;2.00;;;;;22.10;43.93;101600.97;5078617;28;45431;-51
2021/10/06 10:53:10;;;;;;;;;1.00;1.00;;;;;22.11;44.03;101601.81;5078508;28;46255;-52
2021/10/06 10:55:54;;;;;;;;;1.75;1.75;;;;;22.12;44.04;101608.81;5078178;28;45697;-51
2021/10/06 10:58:30;;;;;;;;;6.00;3.00;;;;;22.12;44.20;101604.38;5078299;28;45536;-56
2021/10/06 11:00:57;;;;;;;;;3.00;2.00;;;;;22.11;44.15;101597.38;5078127;28;45402;-55
2021/10/06 11:03:23;;;;;;;;;2.00;1.75;;;;;22.11;44.00;101599.16;5078081;28;45825;-55
2021/10/06 11:05:50;;;;;;;;;1.50;1.50;;;;;22.11;44.05;101592.09;5078072;28;45328;-56
2021/10/06 11:08:30;;;;;;;;;2.00;2.00;;;;;22.12;44.18;101591.16;5078217;28;45358;-55
2021/10/06 11:11:10;;;;;;;;;2.25;2.25;;;;;22.13;44.25;101589.41;5078145;28;45451;-56
2021/10/06 11:13:40;;;;;;;;;2.00;2.00;;;;;22.13;44.46;101584.97;5077874;28;46279;-54
2021/10/06 11:16:06;;;;;;;;;2.50;2.00;;;;;22.13;44.74;101587.59;5077823;28;45311;-52
2021/10/06 11:18:43;;;;;;;;;3.25;2.00;;;;;22.12;44.77;101604.38;5076609;28;45432;-53
2021/10/06 11:21:10;;;;;;;;;3.00;2.00;;;;;22.13;45.06;101602.59;5078379;28;45331;-52
2021/10/06 11:23:35;;;;;;;;;3.00;2.00;;;;;22.14;45.35;101602.50;5093318;27;46035;-55
2021/10/06 11:26:03;;;;;;;;;5.00;3.00;;;;;22.16;45.25;101607.72;5077702;28;45268;-52